Rickmers New Orleans — V7FF2 — position and weather

sailwx.info

Track history (hours):
 
Tides and Currents Weather Stations Pressure Air Temp Water Temp Dewpoint Dewpoint Depression Visibility Wind Speed Wind Dir Waves Ship Positions

Rickmers New Orleans

Last reported at 2016-Jun-24 07:33 UTC. Time now 2016-Jun-24 23:56 UTC.
Position N 38°50' W 075°04'.

Length 192.9 m; beam 27.8 m; draft 11.2 m.

Type: Ship. MMSI: 538001922.

Date/timePositionNaut miles runAvg speedWind from/ knotsBaromVisibWave heightAir tempDewpointWater temp
2016-Jun-24 07:33N 38°50' W 075°04'4615.5
2016-Jun-24 04:33N 39°30' W 075°33'1110.9
2016-Jun-24 03:33N 39°41' W 075°31'1110.6
2016-Jun-24 02:33N 39°50' W 075°23'10 9.8
2016-Jun-24 01:33N 39°53' W 075°11'6 6.1
2016-Jun-24 00:33N 39°58' W 075°07'1 1.3
2016-Jun-23 23:32N 39°59' W 075°05'0 0.0
2016-Jun-23 22:32N 39°59' W 075°05'0 0.0
2016-Jun-23 21:32N 39°59' W 075°05'0 0.0
2016-Jun-23 20:29N 39°59' W 075°05'0 0.0
2016-Jun-23 19:32N 39°59' W 075°05'0 0.0
2016-Jun-23 18:32N 39°59' W 075°05'0 0.0
2016-Jun-23 17:32N 39°59' W 075°05'0 0.0
2016-Jun-23 16:32N 39°59' W 075°05'0 0.0
2016-Jun-23 15:32N 39°59' W 075°05'0 0.0
2016-Jun-23 14:32N 39°59' W 075°05'0 0.0
2016-Jun-23 13:32N 39°59' W 075°05'0 0.0
2016-Jun-23 12:32N 39°59' W 075°05'0 0.0
2016-Jun-23 11:32N 39°59' W 075°05'0 0.0
2016-Jun-23 10:32N 39°59' W 075°05'0 0.0
2016-Jun-23 09:33N 39°59' W 075°05'0 0.0
2016-Jun-23 08:32N 39°59' W 075°05'0 0.0
2016-Jun-23 07:33N 39°59' W 075°05'0 0.0
2016-Jun-23 05:32N 39°59' W 075°05'0 0.0
2016-Jun-23 04:32N 39°59' W 075°05'0 0.0
2016-Jun-23 03:32N 39°59' W 075°05'0 0.0
2016-Jun-23 02:29N 39°59' W 075°05'0 0.0
2016-Jun-23 01:32N 39°59' W 075°05'0 0.0
2016-Jun-23 00:32N 39°59' W 075°05'0 0.0
2016-Jun-22 23:32N 39°59' W 075°05'0 0.0
2016-Jun-22 22:32N 39°59' W 075°05'0 0.0
2016-Jun-22 21:32N 39°59' W 075°05'0 0.0
2016-Jun-22 20:32N 39°59' W 075°05'0 0.0
2016-Jun-22 19:32N 39°59' W 075°05'0 0.0
2016-Jun-22 18:32N 39°59' W 075°05'0 0.0
2016-Jun-22 17:32N 39°59' W 075°05'0 0.0
2016-Jun-22 16:32N 39°59' W 075°05'0 0.0
2016-Jun-22 15:32N 39°59' W 075°05'0 0.0
2016-Jun-22 14:32N 39°59' W 075°05'0 0.0
2016-Jun-22 13:32N 39°59' W 075°05'0 0.0
2016-Jun-22 12:32N 39°59' W 075°05'0 0.0
2016-Jun-22 11:32N 39°59' W 075°05'0 0.0
2016-Jun-22 10:32N 39°59' W 075°05'0 0.0
2016-Jun-22 09:32N 39°59' W 075°05'0 0.0
2016-Jun-22 08:32N 39°59' W 075°05'0 0.0
2016-Jun-22 07:32N 39°59' W 075°05'0 0.0
2016-Jun-22 06:32N 39°59' W 075°05'0 0.0
2016-Jun-22 05:32N 39°59' W 075°05'0 0.0
2016-Jun-22 04:32N 39°59' W 075°05'0 0.0
2016-Jun-22 03:32N 39°59' W 075°05'0 0.0
2016-Jun-22 02:32N 39°59' W 075°05'0 0.0
2016-Jun-22 01:32N 39°59' W 075°05'0 0.0
2016-Jun-22 00:32N 39°59' W 075°05'0 0.0
2016-Jun-21 23:32N 39°59' W 075°05'0 0.0
2016-Jun-21 22:32N 39°59' W 075°05'0 0.0
2016-Jun-21 21:32N 39°59' W 075°05'0 0.0
2016-Jun-21 20:32N 39°59' W 075°05'0 0.0
2016-Jun-21 19:32N 39°59' W 075°05'0 0.0
2016-Jun-21 18:32N 39°59' W 075°05'0 0.0
2016-Jun-21 17:32N 39°59' W 075°05'0 0.0
2016-Jun-21 16:32N 39°59' W 075°05'0 0.0
2016-Jun-21 15:33N 39°59' W 075°05'0 0.0
2016-Jun-21 14:32N 39°59' W 075°05'0 0.0
2016-Jun-21 13:33N 39°59' W 075°05'0 0.0
2016-Jun-21 12:33N 39°59' W 075°05'0 0.0
2016-Jun-21 11:33N 39°59' W 075°05'0 0.0
2016-Jun-21 10:33N 39°59' W 075°05'0 0.0
2016-Jun-21 09:32N 39°59' W 075°05'0 0.0
2016-Jun-21 08:32N 39°59' W 075°05'0 0.0
2016-Jun-21 07:32N 39°59' W 075°05'0 0.0
2016-Jun-21 04:32N 39°59' W 075°05'0 0.0
2016-Jun-21 03:32N 39°59' W 075°05'0 0.0
2016-Jun-21 02:32N 39°59' W 075°05'0 0.0
2016-Jun-21 01:32N 39°59' W 075°05'0 0.0
2016-Jun-21 00:32N 39°59' W 075°05'0 0.0
2016-Jun-20 23:32N 39°59' W 075°05'0 0.0
2016-Jun-20 22:32N 39°59' W 075°05'0 0.0
2016-Jun-20 21:32N 39°59' W 075°05'4 3.6
2016-Jun-20 20:33N 39°56' W 075°08'6 6.3
2016-Jun-20 19:33N 39°52' W 075°14'9 8.6
2016-Jun-20 18:33N 39°49' W 075°24'1211.6
2016-Jun-20 17:33N 39°39' W 075°33'1413.7
2016-Jun-20 16:34N 39°25' W 075°31'1716.8
2016-Jun-20 15:33N 39°12' W 075°17'1616.2
2016-Jun-20 14:33N 38°58' W 075°07'1413.0
2016-Jun-20 13:30N 38°46' W 074°59'28 9.4
2016-Jun-20 10:33N 38°23' W 074°40'1514.8
2016-Jun-20 09:32N 38°08' W 074°39'1515.3
2016-Jun-20 08:34N 37°53' W 074°39'1515.3
2016-Jun-20 07:33N 37°38' W 074°39'1515.1
2016-Jun-20 06:33N 37°22' W 074°39'43712.8
2016-Jun-18 20:32N 31°56' W 080°31'1111.5
2016-Jun-18 19:33N 31°58' W 080°44'1111.2
2016-Jun-18 18:33N 32°03' W 080°56'7 6.9
2016-Jun-18 17:31N 32°05' W 081°04'0 0.0
2016-Jun-18 16:25N 32°05' W 081°04'0 0.0
2016-Jun-18 15:31N 32°05' W 081°04'0 0.0
2016-Jun-18 14:31N 32°05' W 081°04'0 0.0
2016-Jun-18 13:31N 32°05' W 081°04'0 0.0
2016-Jun-18 12:31N 32°05' W 081°04'0 0.0
2016-Jun-18 11:31N 32°05' W 081°04'0 0.0
2016-Jun-18 10:31N 32°05' W 081°04'0 0.0
2016-Jun-18 09:31N 32°05' W 081°04'0 0.0
2016-Jun-18 08:31N 32°05' W 081°04'0 0.0
2016-Jun-18 07:31N 32°05' W 081°04'0 0.0
2016-Jun-18 06:31N 32°05' W 081°04'0 0.0
2016-Jun-18 05:31N 32°05' W 081°04'0 0.0
2016-Jun-18 04:13N 32°05' W 081°04'0 0.0
2016-Jun-18 03:31N 32°05' W 081°04'0 0.0
2016-Jun-18 02:25N 32°05' W 081°04'0 0.0
2016-Jun-18 01:31N 32°05' W 081°04'0 0.0
2016-Jun-18 00:31N 32°05' W 081°04'0 0.0
2016-Jun-17 23:31N 32°05' W 081°04'0 0.0
2016-Jun-17 22:31N 32°05' W 081°04'0 0.0
2016-Jun-17 21:31N 32°05' W 081°04'0 0.0
2016-Jun-17 20:31N 32°05' W 081°04'0 0.0
2016-Jun-17 19:31N 32°05' W 081°04'0 0.0
2016-Jun-17 18:31N 32°05' W 081°04'0 0.0
2016-Jun-17 17:31N 32°05' W 081°04'0 0.0
2016-Jun-17 16:31N 32°05' W 081°04'0 0.0
2016-Jun-17 15:31N 32°05' W 081°04'0 0.0
2016-Jun-17 14:31N 32°05' W 081°04'0 0.0
2016-Jun-17 13:31N 32°05' W 081°04'0 0.0
2016-Jun-17 12:07N 32°05' W 081°04'0 0.0
2016-Jun-17 11:31N 32°05' W 081°04'0 0.0
2016-Jun-17 10:31N 32°05' W 081°04'0 0.0
2016-Jun-17 09:31N 32°05' W 081°04'0 0.0
2016-Jun-17 08:31N 32°05' W 081°04'0 0.0
2016-Jun-17 07:31N 32°05' W 081°04'0 0.0
2016-Jun-17 06:31N 32°05' W 081°04'0 0.0
2016-Jun-17 05:31N 32°05' W 081°04'0 0.0
2016-Jun-17 04:31N 32°05' W 081°04'0 0.0
2016-Jun-17 03:31N 32°05' W 081°04'0 0.0
2016-Jun-17 02:31N 32°05' W 081°04'0 0.0
2016-Jun-17 01:31N 32°05' W 081°04'0 0.0
2016-Jun-17 00:25N 32°05' W 081°04'0 0.0
2016-Jun-16 23:31N 32°05' W 081°04'0 0.0
2016-Jun-16 22:31N 32°05' W 081°04'0 0.0
2016-Jun-16 21:31N 32°05' W 081°04'0 0.0
2016-Jun-16 20:31N 32°05' W 081°04'0 0.0
2016-Jun-16 19:31N 32°05' W 081°04'0 0.0
2016-Jun-16 18:31N 32°05' W 081°04'0 0.0
2016-Jun-16 17:31N 32°05' W 081°04'0 0.0
2016-Jun-16 16:31N 32°05' W 081°04'0 0.0
2016-Jun-16 15:31N 32°05' W 081°04'0 0.0
2016-Jun-16 14:31N 32°05' W 081°04'0 0.0
2016-Jun-16 13:31N 32°05' W 081°04'0 0.0
2016-Jun-16 12:19N 32°05' W 081°04'0 0.0
2016-Jun-16 11:31N 32°05' W 081°04'4 3.8
2016-Jun-16 10:33N 32°06' W 081°00'6 6.1
2016-Jun-16 09:33N 32°02' W 080°55'11 9.9
2016-Jun-16 08:24N 31°58' W 080°42'6 6.6
2016-Jun-16 07:33N 31°53' W 080°39'33612.9
2016-Jun-15 05:26N 26°23' W 079°25'1719.3
2016-Jun-15 04:33N 26°06' W 079°27'  
Track history (hours):
 
Tides and Currents Weather Stations Pressure Air Temp Water Temp Dewpoint Dewpoint Depression Visibility Wind Speed Wind Dir Waves Ship Positions

Rickmers New Orleans

Last reported at 2016-Jun-24 07:33 UTC. Time now 2016-Jun-24 23:56 UTC.
Position N 38°50' W 075°04'.

Length 192.9 m; beam 27.8 m; draft 11.2 m.

Type: Ship. MMSI: 538001922.

Date/timePositionNaut miles runAvg speedWind from/ knotsBaromVisibWave heightAir tempDewpointWater temp
2016-Jun-24 07:33N 38°50' W 075°04'4615.5
2016-Jun-24 04:33N 39°30' W 075°33'1110.9
2016-Jun-24 03:33N 39°41' W 075°31'1110.6
2016-Jun-24 02:33N 39°50' W 075°23'10 9.8
2016-Jun-24 01:33N 39°53' W 075°11'6 6.1
2016-Jun-24 00:33N 39°58' W 075°07'1 1.3
2016-Jun-23 23:32N 39°59' W 075°05'0 0.0
2016-Jun-23 22:32N 39°59' W 075°05'0 0.0
2016-Jun-23 21:32N 39°59' W 075°05'0 0.0
2016-Jun-23 20:29N 39°59' W 075°05'0 0.0
2016-Jun-23 19:32N 39°59' W 075°05'0 0.0
2016-Jun-23 18:32N 39°59' W 075°05'0 0.0
2016-Jun-23 17:32N 39°59' W 075°05'0 0.0
2016-Jun-23 16:32N 39°59' W 075°05'0 0.0
2016-Jun-23 15:32N 39°59' W 075°05'0 0.0
2016-Jun-23 14:32N 39°59' W 075°05'0 0.0
2016-Jun-23 13:32N 39°59' W 075°05'0 0.0
2016-Jun-23 12:32N 39°59' W 075°05'0 0.0
2016-Jun-23 11:32N 39°59' W 075°05'0 0.0
2016-Jun-23 10:32N 39°59' W 075°05'0 0.0
2016-Jun-23 09:33N 39°59' W 075°05'0 0.0
2016-Jun-23 08:32N 39°59' W 075°05'0 0.0
2016-Jun-23 07:33N 39°59' W 075°05'0 0.0
2016-Jun-23 05:32N 39°59' W 075°05'0 0.0
2016-Jun-23 04:32N 39°59' W 075°05'0 0.0
2016-Jun-23 03:32N 39°59' W 075°05'0 0.0
2016-Jun-23 02:29N 39°59' W 075°05'0 0.0
2016-Jun-23 01:32N 39°59' W 075°05'0 0.0
2016-Jun-23 00:32N 39°59' W 075°05'0 0.0
2016-Jun-22 23:32N 39°59' W 075°05'0 0.0
2016-Jun-22 22:32N 39°59' W 075°05'0 0.0
2016-Jun-22 21:32N 39°59' W 075°05'0 0.0
2016-Jun-22 20:32N 39°59' W 075°05'0 0.0
2016-Jun-22 19:32N 39°59' W 075°05'0 0.0
2016-Jun-22 18:32N 39°59' W 075°05'0 0.0
2016-Jun-22 17:32N 39°59' W 075°05'0 0.0
2016-Jun-22 16:32N 39°59' W 075°05'0 0.0
2016-Jun-22 15:32N 39°59' W 075°05'0 0.0
2016-Jun-22 14:32N 39°59' W 075°05'0 0.0
2016-Jun-22 13:32N 39°59' W 075°05'0 0.0
2016-Jun-22 12:32N 39°59' W 075°05'0 0.0
2016-Jun-22 11:32N 39°59' W 075°05'0 0.0
2016-Jun-22 10:32N 39°59' W 075°05'0 0.0
2016-Jun-22 09:32N 39°59' W 075°05'0 0.0
2016-Jun-22 08:32N 39°59' W 075°05'0 0.0
2016-Jun-22 07:32N 39°59' W 075°05'0 0.0
2016-Jun-22 06:32N 39°59' W 075°05'0 0.0
2016-Jun-22 05:32N 39°59' W 075°05'0 0.0
2016-Jun-22 04:32N 39°59' W 075°05'0 0.0
2016-Jun-22 03:32N 39°59' W 075°05'0 0.0
2016-Jun-22 02:32N 39°59' W 075°05'0 0.0
2016-Jun-22 01:32N 39°59' W 075°05'0 0.0
2016-Jun-22 00:32N 39°59' W 075°05'0 0.0
2016-Jun-21 23:32N 39°59' W 075°05'0 0.0
2016-Jun-21 22:32N 39°59' W 075°05'0 0.0
2016-Jun-21 21:32N 39°59' W 075°05'0 0.0
2016-Jun-21 20:32N 39°59' W 075°05'0 0.0
2016-Jun-21 19:32N 39°59' W 075°05'0 0.0
2016-Jun-21 18:32N 39°59' W 075°05'0 0.0
2016-Jun-21 17:32N 39°59' W 075°05'0 0.0
2016-Jun-21 16:32N 39°59' W 075°05'0 0.0
2016-Jun-21 15:33N 39°59' W 075°05'0 0.0
2016-Jun-21 14:32N 39°59' W 075°05'0 0.0
2016-Jun-21 13:33N 39°59' W 075°05'0 0.0
2016-Jun-21 12:33N 39°59' W 075°05'0 0.0
2016-Jun-21 11:33N 39°59' W 075°05'0 0.0
2016-Jun-21 10:33N 39°59' W 075°05'0 0.0
2016-Jun-21 09:32N 39°59' W 075°05'0 0.0
2016-Jun-21 08:32N 39°59' W 075°05'0 0.0
2016-Jun-21 07:32N 39°59' W 075°05'0 0.0
2016-Jun-21 04:32N 39°59' W 075°05'0 0.0
2016-Jun-21 03:32N 39°59' W 075°05'0 0.0
2016-Jun-21 02:32N 39°59' W 075°05'0 0.0
2016-Jun-21 01:32N 39°59' W 075°05'0 0.0
2016-Jun-21 00:32N 39°59' W 075°05'0 0.0
2016-Jun-20 23:32N 39°59' W 075°05'0 0.0
2016-Jun-20 22:32N 39°59' W 075°05'0 0.0
2016-Jun-20 21:32N 39°59' W 075°05'4 3.6
2016-Jun-20 20:33N 39°56' W 075°08'6 6.3
2016-Jun-20 19:33N 39°52' W 075°14'9 8.6
2016-Jun-20 18:33N 39°49' W 075°24'1211.6
2016-Jun-20 17:33N 39°39' W 075°33'1413.7
2016-Jun-20 16:34N 39°25' W 075°31'1716.8
2016-Jun-20 15:33N 39°12' W 075°17'1616.2
2016-Jun-20 14:33N 38°58' W 075°07'1413.0
2016-Jun-20 13:30N 38°46' W 074°59'28 9.4
2016-Jun-20 10:33N 38°23' W 074°40'1514.8
2016-Jun-20 09:32N 38°08' W 074°39'1515.3
2016-Jun-20 08:34N 37°53' W 074°39'1515.3
2016-Jun-20 07:33N 37°38' W 074°39'1515.1
2016-Jun-20 06:33N 37°22' W 074°39'43712.8
2016-Jun-18 20:32N 31°56' W 080°31'1111.5
2016-Jun-18 19:33N 31°58' W 080°44'1111.2
2016-Jun-18 18:33N 32°03' W 080°56'7 6.9
2016-Jun-18 17:31N 32°05' W 081°04'0 0.0
2016-Jun-18 16:25N 32°05' W 081°04'0 0.0
2016-Jun-18 15:31N 32°05' W 081°04'0 0.0
2016-Jun-18 14:31N 32°05' W 081°04'0 0.0
2016-Jun-18 13:31N 32°05' W 081°04'0 0.0
2016-Jun-18 12:31N 32°05' W 081°04'0 0.0
2016-Jun-18 11:31N 32°05' W 081°04'0 0.0
2016-Jun-18 10:31N 32°05' W 081°04'0 0.0
2016-Jun-18 09:31N 32°05' W 081°04'0 0.0
2016-Jun-18 08:31N 32°05' W 081°04'0 0.0
2016-Jun-18 07:31N 32°05' W 081°04'0 0.0
2016-Jun-18 06:31N 32°05' W 081°04'0 0.0
2016-Jun-18 05:31N 32°05' W 081°04'0 0.0
2016-Jun-18 04:13N 32°05' W 081°04'0 0.0
2016-Jun-18 03:31N 32°05' W 081°04'0 0.0
2016-Jun-18 02:25N 32°05' W 081°04'0 0.0
2016-Jun-18 01:31N 32°05' W 081°04'0 0.0
2016-Jun-18 00:31N 32°05' W 081°04'0 0.0
2016-Jun-17 23:31N 32°05' W 081°04'0 0.0
2016-Jun-17 22:31N 32°05' W 081°04'0 0.0
2016-Jun-17 21:31N 32°05' W 081°04'0 0.0
2016-Jun-17 20:31N 32°05' W 081°04'0 0.0
2016-Jun-17 19:31N 32°05' W 081°04'0 0.0
2016-Jun-17 18:31N 32°05' W 081°04'0 0.0
2016-Jun-17 17:31N 32°05' W 081°04'0 0.0
2016-Jun-17 16:31N 32°05' W 081°04'0 0.0
2016-Jun-17 15:31N 32°05' W 081°04'0 0.0
2016-Jun-17 14:31N 32°05' W 081°04'0 0.0
2016-Jun-17 13:31N 32°05' W 081°04'0 0.0
2016-Jun-17 12:07N 32°05' W 081°04'0 0.0
2016-Jun-17 11:31N 32°05' W 081°04'0 0.0
2016-Jun-17 10:31N 32°05' W 081°04'0 0.0
2016-Jun-17 09:31N 32°05' W 081°04'0 0.0
2016-Jun-17 08:31N 32°05' W 081°04'0 0.0
2016-Jun-17 07:31N 32°05' W 081°04'0 0.0
2016-Jun-17 06:31N 32°05' W 081°04'0 0.0
2016-Jun-17 05:31N 32°05' W 081°04'0 0.0
2016-Jun-17 04:31N 32°05' W 081°04'0 0.0
2016-Jun-17 03:31N 32°05' W 081°04'0 0.0
2016-Jun-17 02:31N 32°05' W 081°04'0 0.0
2016-Jun-17 01:31N 32°05' W 081°04'0 0.0
2016-Jun-17 00:25N 32°05' W 081°04'0 0.0
2016-Jun-16 23:31N 32°05' W 081°04'0 0.0
2016-Jun-16 22:31N 32°05' W 081°04'0 0.0
2016-Jun-16 21:31N 32°05' W 081°04'0 0.0
2016-Jun-16 20:31N 32°05' W 081°04'0 0.0
2016-Jun-16 19:31N 32°05' W 081°04'0 0.0
2016-Jun-16 18:31N 32°05' W 081°04'0 0.0
2016-Jun-16 17:31N 32°05' W 081°04'0 0.0
2016-Jun-16 16:31N 32°05' W 081°04'0 0.0
2016-Jun-16 15:31N 32°05' W 081°04'0 0.0
2016-Jun-16 14:31N 32°05' W 081°04'0 0.0
2016-Jun-16 13:31N 32°05' W 081°04'0 0.0
2016-Jun-16 12:19N 32°05' W 081°04'0 0.0
2016-Jun-16 11:31N 32°05' W 081°04'4 3.8
2016-Jun-16 10:33N 32°06' W 081°00'6 6.1
2016-Jun-16 09:33N 32°02' W 080°55'11 9.9
2016-Jun-16 08:24N 31°58' W 080°42'6 6.6
2016-Jun-16 07:33N 31°53' W 080°39'33612.9
2016-Jun-15 05:26N 26°23' W 079°25'1719.3
2016-Jun-15 04:33N 26°06' W 079°27'  

Dump ship's entire track history